Time,TemperatureF,DewpointF,PressureIn,WindDirection,WindDirectionDegrees,WindSpeedMPH,WindSpeedGustMPH,Humidity,HourlyPrecipIn,Conditions,Clouds,dailyrainin,SoftwareType,DateUTC
2013-02-03 00:02:00,34.4,31.5,30.32,ESE,120,0.0,0.0,89,0.00,,,0.00,Weather View 32 v70,2013-02-03 08:02:00,
2013-02-03 00:07:00,34.1,30.9,30.32,ESE,120,0.0,0.0,88,0.00,,,0.00,Weather View 32 v70,2013-02-03 08:07:00,
2013-02-03 00:12:00,33.5,30.3,30.32,ESE,120,0.0,0.0,88,0.00,,,0.00,Weather View 32 v70,2013-02-03 08:12:00,
2013-02-03 00:17:00,33.1,29.9,30.32,ESE,120,0.0,0.0,88,0.00,,,0.00,Weather View 32 v70,2013-02-03 08:17:00,
2013-02-03 00:22:00,32.9,29.7,30.32,ESE,120,0.0,0.0,88,0.00,,,0.00,Weather View 32 v70,2013-02-03 08:22:00,
2013-02-03 00:27:00,32.5,29.6,30.32,ESE,120,0.0,0.0,89,0.00,,,0.00,Weather View 32 v70,2013-02-03 08:27:00,
2013-02-03 00:32:00,32.4,29.5,30.32,ESE,120,0.0,0.0,89,0.00,,,0.00,Weather View 32 v70,2013-02-03 08:32:00,
2013-02-03 00:37:00,32.2,29.3,30.32,ESE,120,0.0,0.0,89,0.00,,,0.00,Weather View 32 v70,2013-02-03 08:37:00,
2013-02-03 00:42:00,31.8,28.9,30.31,ESE,120,0.0,0.0,89,0.00,,,0.00,Weather View 32 v70,2013-02-03 08:42:00,
2013-02-03 00:47:00,31.9,29.3,30.31,ESE,120,0.0,0.0,90,0.00,,,0.00,Weather View 32 v70,2013-02-03 08:47:00,
2013-02-03 00:52:00,31.9,29.3,30.31,ESE,120,0.0,0.0,90,0.00,,,0.00,Weather View 32 v70,2013-02-03 08:52:00,
2013-02-03 00:57:00,31.8,29.2,30.30,ESE,120,0.0,0.0,90,0.00,,,0.00,Weather View 32 v70,2013-02-03 08:57:00,
2013-02-03 01:02:00,31.8,29.2,30.30,ESE,120,0.0,0.0,90,0.00,,,0.00,Weather View 32 v70,2013-02-03 09:02:00,
2013-02-03 01:07:00,31.6,29.0,30.30,ESE,120,0.0,0.0,90,0.00,,,0.00,Weather View 32 v70,2013-02-03 09:07:00,
2013-02-03 01:12:00,31.6,29.0,30.30,ESE,120,0.0,0.0,90,0.00,,,0.00,Weather View 32 v70,2013-02-03 09:12:00,
2013-02-03 01:17:00,31.5,28.9,30.30,ESE,120,0.0,0.0,90,0.00,,,0.00,Weather View 32 v70,2013-02-03 09:17:00,
2013-02-03 01:22:00,31.3,28.7,30.30,ESE,120,0.0,0.0,90,0.00,,,0.00,Weather View 32 v70,2013-02-03 09:22:00,
2013-02-03 01:27:00,31.2,28.6,30.30,ESE,120,0.0,0.0,90,0.00,,,0.00,Weather View 32 v70,2013-02-03 09:27:00,
2013-02-03 01:32:00,31.2,28.9,30.30,ESE,120,0.0,0.0,91,0.00,,,0.00,Weather View 32 v70,2013-02-03 09:32:00,
2013-02-03 01:37:00,31.3,29.0,30.30,ESE,120,0.0,0.0,91,0.00,,,0.00,Weather View 32 v70,2013-02-03 09:37:00,
2013-02-03 01:42:00,31.3,29.0,30.30,ESE,120,0.0,0.0,91,0.00,,,0.00,Weather View 32 v70,2013-02-03 09:42:00,
2013-02-03 01:47:00,31.2,28.9,30.30,ESE,120,0.0,0.0,91,0.00,,,0.00,Weather View 32 v70,2013-02-03 09:47:00,
2013-02-03 01:52:00,31.3,29.0,30.30,ESE,120,0.0,0.0,91,0.00,,,0.00,Weather View 32 v70,2013-02-03 09:52:00,
2013-02-03 01:57:00,31.3,29.0,30.30,ESE,120,0.0,0.0,91,0.00,,,0.00,Weather View 32 v70,2013-02-03 09:57:00,
2013-02-03 02:02:00,31.5,29.4,30.30,ESE,120,0.0,0.0,92,0.00,,,0.00,Weather View 32 v70,2013-02-03 10:02:00,
2013-02-03 02:07:00,31.2,28.9,30.30,ESE,120,0.0,0.0,91,0.00,,,0.00,Weather View 32 v70,2013-02-03 10:07:00,
2013-02-03 02:12:00,30.7,28.4,30.30,ESE,120,0.0,0.0,91,0.00,,,0.00,Weather View 32 v70,2013-02-03 10:12:00,
2013-02-03 02:17:00,30.4,28.1,30.31,ESE,120,0.0,0.0,91,0.00,,,0.00,Weather View 32 v70,2013-02-03 10:17:00,
2013-02-03 02:22:00,30.6,28.6,30.31,ESE,120,0.0,0.0,92,0.00,,,0.00,Weather View 32 v70,2013-02-03 10:22:00,
2013-02-03 02:27:00,30.7,28.7,30.31,ESE,120,0.0,0.0,92,0.00,,,0.00,Weather View 32 v70,2013-02-03 10:27:00,
2013-02-03 02:32:00,30.7,28.7,30.31,ESE,120,0.0,0.0,92,0.00,,,0.00,Weather View 32 v70,2013-02-03 10:32:00,
2013-02-03 02:37:00,30.9,28.8,30.31,ESE,120,0.0,0.0,92,0.00,,,0.00,Weather View 32 v70,2013-02-03 10:37:00,
2013-02-03 02:42:00,30.9,28.8,30.31,ESE,120,0.0,0.0,92,0.00,,,0.00,Weather View 32 v70,2013-02-03 10:42:00,
2013-02-03 02:47:00,30.9,28.8,30.30,ESE,120,0.0,0.0,92,0.00,,,0.00,Weather View 32 v70,2013-02-03 10:47:00,
2013-02-03 02:52:00,30.7,28.7,30.30,ESE,120,0.0,0.0,92,0.00,,,0.00,Weather View 32 v70,2013-02-03 10:52:00,
2013-02-03 02:57:00,30.4,28.4,30.30,ESE,120,0.0,0.0,92,0.00,,,0.00,Weather View 32 v70,2013-02-03 10:57:00,
2013-02-03 03:02:00,30.3,28.3,30.29,ESE,120,0.0,0.0,92,0.00,,,0.00,Weather View 32 v70,2013-02-03 11:02:00,
2013-02-03 03:07:00,30.4,28.4,30.29,ESE,120,0.0,0.0,92,0.00,,,0.00,Weather View 32 v70,2013-02-03 11:07:00,
2013-02-03 03:12:00,30.6,28.6,30.29,ESE,120,0.0,0.0,92,0.00,,,0.00,Weather View 32 v70,2013-02-03 11:12:00,
2013-02-03 03:17:00,30.9,28.8,30.29,ESE,120,0.0,0.0,92,0.00,,,0.00,Weather View 32 v70,2013-02-03 11:17:00,
2013-02-03 03:22:00,30.7,28.7,30.29,ESE,120,0.0,0.0,92,0.00,,,0.00,Weather View 32 v70,2013-02-03 11:22:00,
2013-02-03 03:27:00,30.7,28.7,30.29,ESE,120,0.0,0.0,92,0.00,,,0.00,Weather View 32 v70,2013-02-03 11:27:00,
2013-02-03 03:32:00,30.6,28.6,30.29,ESE,120,0.0,0.0,92,0.00,,,0.00,Weather View 32 v70,2013-02-03 11:32:00,
2013-02-03 03:37:00,30.4,28.4,30.29,ESE,120,0.0,0.0,92,0.00,,,0.00,Weather View 32 v70,2013-02-03 11:37:00,
2013-02-03 03:42:00,30.4,28.4,30.28,ESE,120,0.0,0.0,92,0.00,,,0.00,Weather View 32 v70,2013-02-03 11:42:00,
2013-02-03 03:47:00,30.6,28.6,30.29,ESE,120,0.0,0.0,92,0.00,,,0.00,Weather View 32 v70,2013-02-03 11:47:00,
2013-02-03 03:52:00,30.7,28.7,30.29,ESE,120,0.0,0.0,92,0.00,,,0.00,Weather View 32 v70,2013-02-03 11:52:00,
2013-02-03 03:57:00,30.7,28.7,30.28,ESE,120,0.0,0.0,92,0.00,,,0.00,Weather View 32 v70,2013-02-03 11:57:00,
2013-02-03 04:02:00,30.6,28.6,30.28,ESE,120,0.0,0.0,92,0.00,,,0.00,Weather View 32 v70,2013-02-03 12:02:00,
2013-02-03 04:07:00,30.6,28.6,30.29,ESE,120,0.0,0.0,92,0.00,,,0.00,Weather View 32 v70,2013-02-03 12:07:00,
2013-02-03 04:12:00,30.7,28.7,30.29,ESE,120,0.0,0.0,92,0.00,,,0.00,Weather View 32 v70,2013-02-03 12:12:00,
2013-02-03 04:17:00,30.9,29.1,30.28,ESE,120,0.0,0.0,93,0.00,,,0.00,Weather View 32 v70,2013-02-03 12:17:00,
2013-02-03 04:22:00,30.9,28.8,30.29,ESE,120,0.0,0.0,92,0.00,,,0.00,Weather View 32 v70,2013-02-03 12:22:00,
2013-02-03 04:27:00,31.0,28.9,30.28,ESE,120,0.0,0.0,92,0.00,,,0.00,Weather View 32 v70,2013-02-03 12:27:00,
2013-02-03 04:32:00,31.0,28.9,30.28,ESE,120,0.0,0.0,92,0.00,,,0.00,Weather View 32 v70,2013-02-03 12:32:00,
2013-02-03 04:37:00,30.9,28.8,30.28,ESE,120,0.0,0.0,92,0.00,,,0.00,Weather View 32 v70,2013-02-03 12:37:00,
2013-02-03 04:42:00,30.9,28.8,30.28,ESE,120,0.0,0.0,92,0.00,,,0.00,Weather View 32 v70,2013-02-03 12:42:00,
2013-02-03 04:47:00,31.0,29.2,30.28,ESE,120,0.0,0.0,93,0.00,,,0.00,Weather View 32 v70,2013-02-03 12:47:00,
2013-02-03 04:52:00,31.0,29.2,30.28,ESE,120,0.0,0.0,93,0.00,,,0.00,Weather View 32 v70,2013-02-03 12:52:00,
2013-02-03 04:57:00,31.0,28.9,30.28,ESE,120,0.0,0.0,92,0.00,,,0.00,Weather View 32 v70,2013-02-03 12:57:00,
2013-02-03 05:02:00,31.0,28.9,30.28,ESE,120,0.0,0.0,92,0.00,,,0.00,Weather View 32 v70,2013-02-03 13:02:00,
2013-02-03 05:07:00,30.9,28.8,30.28,ESE,120,0.0,0.0,92,0.00,,,0.00,Weather View 32 v70,2013-02-03 13:07:00,
2013-02-03 05:12:00,30.7,28.7,30.28,ESE,120,0.0,0.0,92,0.00,,,0.00,Weather View 32 v70,2013-02-03 13:12:00,
2013-02-03 05:17:00,30.6,28.6,30.28,ESE,120,0.0,0.0,92,0.00,,,0.00,Weather View 32 v70,2013-02-03 13:17:00,
2013-02-03 05:22:00,30.6,28.6,30.28,ESE,120,0.0,0.0,92,0.00,,,0.00,Weather View 32 v70,2013-02-03 13:22:00,
2013-02-03 05:27:00,30.7,28.9,30.28,ESE,120,0.0,0.0,93,0.00,,,0.00,Weather View 32 v70,2013-02-03 13:27:00,
2013-02-03 05:32:00,30.9,29.1,30.29,ESE,120,0.0,0.0,93,0.00,,,0.00,Weather View 32 v70,2013-02-03 13:32:00,
2013-02-03 05:37:00,30.7,28.7,30.29,ESE,120,0.0,0.0,92,0.00,,,0.00,Weather View 32 v70,2013-02-03 13:37:00,
2013-02-03 05:42:00,31.0,29.2,30.29,ESE,120,0.0,0.0,93,0.00,,,0.00,Weather View 32 v70,2013-02-03 13:42:00,
2013-02-03 05:47:00,31.9,30.1,30.29,ESE,120,0.0,0.0,93,0.00,,,0.00,Weather View 32 v70,2013-02-03 13:47:00,
2013-02-03 05:52:00,32.5,30.7,30.29,ESE,120,0.0,0.0,93,0.00,,,0.00,Weather View 32 v70,2013-02-03 13:52:00,
2013-02-03 05:57:00,32.8,31.0,30.29,ESE,120,0.0,0.0,93,0.00,,,0.00,Weather View 32 v70,2013-02-03 13:57:00,
2013-02-03 06:02:00,33.2,31.4,30.29,ESE,119,0.0,0.0,93,0.00,,,0.00,Weather View 32 v70,2013-02-03 14:02:00,
2013-02-03 06:07:00,33.8,32.3,30.29,NW,325,0.0,5.0,94,0.00,,,0.00,Weather View 32 v70,2013-02-03 14:07:00,
2013-02-03 06:12:00,34.1,32.6,30.29,NNW,329,2.0,5.0,94,0.00,,,0.00,Weather View 32 v70,2013-02-03 14:12:00,
2013-02-03 06:17:00,34.1,32.3,30.29,NNW,329,0.0,5.0,93,0.00,,,0.00,Weather View 32 v70,2013-02-03 14:17:00,
2013-02-03 06:22:00,33.7,31.9,30.29,NNW,329,0.0,5.0,93,0.00,,,0.00,Weather View 32 v70,2013-02-03 14:22:00,
2013-02-03 06:27:00,33.2,31.4,30.29,NNW,328,0.0,5.0,93,0.00,,,0.00,Weather View 32 v70,2013-02-03 14:27:00,
2013-02-03 06:32:00,32.9,31.1,30.29,NNW,328,0.0,5.0,93,0.00,,,0.00,Weather View 32 v70,2013-02-03 14:32:00,
2013-02-03 06:37:00,32.9,31.1,30.29,NNW,332,2.0,5.0,93,0.00,,,0.00,Weather View 32 v70,2013-02-03 14:37:00,
2013-02-03 06:42:00,33.2,31.4,30.29,NNW,332,0.0,5.0,93,0.00,,,0.00,Weather View 32 v70,2013-02-03 14:42:00,
2013-02-03 06:47:00,33.4,31.6,30.28,NNW,332,0.0,5.0,93,0.00,,,0.00,Weather View 32 v70,2013-02-03 14:47:00,
2013-02-03 06:52:00,33.4,31.6,30.29,NNW,342,0.0,5.0,93,0.00,,,0.00,Weather View 32 v70,2013-02-03 14:52:00,
2013-02-03 06:57:00,33.5,31.7,30.29,NNW,346,2.0,5.0,93,0.00,,,0.00,Weather View 32 v70,2013-02-03 14:57:00,
2013-02-03 07:02:00,34.0,32.2,30.29,ESE,111,3.0,6.0,93,0.00,,,0.00,Weather View 32 v70,2013-02-03 15:02:00,
2013-02-03 07:07:00,34.3,32.5,30.30,SE,130,0.0,6.0,93,0.00,,,0.00,Weather View 32 v70,2013-02-03 15:07:00,
2013-02-03 07:12:00,34.0,32.2,30.30,NE,49,0.0,6.0,93,0.00,,,0.00,Weather View 32 v70,2013-02-03 15:12:00,
2013-02-03 07:17:00,33.4,31.3,30.30,NE,47,0.0,6.0,92,0.00,,,0.00,Weather View 32 v70,2013-02-03 15:17:00,
2013-02-03 07:22:00,32.8,30.7,30.30,East,84,0.0,6.0,92,0.00,,,0.00,Weather View 32 v70,2013-02-03 15:22:00,
2013-02-03 07:27:00,32.5,30.4,30.30,East,84,0.0,6.0,92,0.00,,,0.00,Weather View 32 v70,2013-02-03 15:27:00,
2013-02-03 07:32:00,32.5,30.7,30.30,East,84,0.0,6.0,93,0.00,,,0.00,Weather View 32 v70,2013-02-03 15:32:00,
2013-02-03 07:37:00,32.7,30.9,30.30,East,84,0.0,6.0,93,0.00,,,0.00,Weather View 32 v70,2013-02-03 15:37:00,
2013-02-03 07:42:00,32.9,31.1,30.30,East,84,0.0,6.0,93,0.00,,,0.00,Weather View 32 v70,2013-02-03 15:42:00,
2013-02-03 07:47:00,33.2,31.4,30.30,East,84,0.0,6.0,93,0.00,,,0.00,Weather View 32 v70,2013-02-03 15:47:00,
2013-02-03 07:52:00,33.5,31.7,30.30,ENE,75,0.0,6.0,93,0.00,,,0.00,Weather View 32 v70,2013-02-03 15:52:00,
2013-02-03 07:57:00,34.1,32.3,30.30,ENE,75,0.0,6.0,93,0.00,,,0.00,Weather View 32 v70,2013-02-03 15:57:00,
2013-02-03 08:02:00,34.3,32.5,30.30,ENE,76,0.0,6.0,93,0.00,,,0.00,Weather View 32 v70,2013-02-03 16:02:00,
2013-02-03 08:07:00,34.3,32.5,30.30,SSE,155,0.0,6.0,93,0.01,,,0.01,Weather View 32 v70,2013-02-03 16:07:00,
2013-02-03 08:12:00,34.1,32.3,30.30,South,180,2.0,6.0,93,0.01,,,0.01,Weather View 32 v70,2013-02-03 16:12:00,
2013-02-03 08:17:00,33.8,31.7,30.30,South,180,0.0,6.0,92,0.01,,,0.01,Weather View 32 v70,2013-02-03 16:17:00,
2013-02-03 08:22:00,33.8,32.0,30.30,South,180,0.0,5.0,93,0.01,,,0.01,Weather View 32 v70,2013-02-03 16:22:00,
2013-02-03 08:27:00,34.0,32.2,30.30,South,180,0.0,5.0,93,0.01,,,0.01,Weather View 32 v70,2013-02-03 16:27:00,
2013-02-03 08:32:00,34.3,32.5,30.30,South,180,0.0,5.0,93,0.00,,,0.01,Weather View 32 v70,2013-02-03 16:32:00,
2013-02-03 08:37:00,34.7,32.9,30.30,South,180,0.0,5.0,93,0.01,,,0.01,Weather View 32 v70,2013-02-03 16:37:00,
2013-02-03 08:42:00,34.9,33.1,30.30,South,178,0.0,5.0,93,0.01,,,0.01,Weather View 32 v70,2013-02-03 16:42:00,
2013-02-03 08:46:00,35.0,33.2,30.30,South,178,0.0,5.0,93,0.01,,,0.01,Weather View 32 v70,2013-02-03 16:46:00,
2013-02-03 08:51:00,35.2,33.1,30.30,South,178,0.0,5.0,92,0.01,,,0.01,Weather View 32 v70,2013-02-03 16:51:00,
2013-02-03 08:56:00,35.3,33.2,30.30,South,178,0.0,5.0,92,0.01,,,0.01,Weather View 32 v70,2013-02-03 16:56:00,
2013-02-03 09:01:00,35.6,33.5,30.29,SSE,159,0.0,5.0,92,0.01,,,0.01,Weather View 32 v70,2013-02-03 17:01:00,
2013-02-03 09:06:00,35.9,33.8,30.30,SSE,159,0.0,5.0,92,0.01,,,0.01,Weather View 32 v70,2013-02-03 17:06:00,
2013-02-03 09:11:00,36.2,34.1,30.29,SSE,159,0.0,5.0,92,0.00,,,0.01,Weather View 32 v70,2013-02-03 17:11:00,
2013-02-03 09:16:00,36.5,34.4,30.29,SSE,159,0.0,5.0,92,0.00,,,0.01,Weather View 32 v70,2013-02-03 17:16:00,
2013-02-03 09:21:00,36.6,34.5,30.29,SSE,159,0.0,5.0,92,0.00,,,0.01,Weather View 32 v70,2013-02-03 17:21:00,
2013-02-03 09:26:00,36.8,34.7,30.29,SSE,157,0.0,5.0,92,0.00,,,0.01,Weather View 32 v70,2013-02-03 17:26:00,
2013-02-03 09:31:00,36.9,34.8,30.29,SSE,157,0.0,5.0,92,0.00,,,0.01,Weather View 32 v70,2013-02-03 17:31:00,
2013-02-03 09:36:00,37.2,35.1,30.29,SSE,157,0.0,5.0,92,0.00,,,0.01,Weather View 32 v70,2013-02-03 17:36:00,
2013-02-03 09:41:00,37.5,35.4,30.29,SSE,153,5.0,5.0,92,0.00,,,0.01,Weather View 32 v70,2013-02-03 17:41:00,
2013-02-03 09:46:00,38.0,35.9,30.29,SE,141,0.0,5.0,92,0.00,,,0.01,Weather View 32 v70,2013-02-03 17:46:00,
2013-02-03 09:51:00,38.8,36.7,30.29,SE,142,0.0,5.0,92,0.00,,,0.01,Weather View 32 v70,2013-02-03 17:51:00,
2013-02-03 09:56:00,39.2,37.1,30.29,SE,142,0.0,5.0,92,0.00,,,0.01,Weather View 32 v70,2013-02-03 17:56:00,
2013-02-03 10:01:00,39.8,37.7,30.30,SE,141,0.0,5.0,92,0.00,,,0.01,Weather View 32 v70,2013-02-03 18:01:00,
2013-02-03 10:06:00,40.5,38.4,30.29,SE,141,0.0,5.0,92,0.00,,,0.01,Weather View 32 v70,2013-02-03 18:06:00,
2013-02-03 10:11:00,42.2,40.0,30.29,West,277,5.0,11.0,92,0.00,,,0.01,Weather View 32 v70,2013-02-03 18:11:00,
2013-02-03 10:16:00,44.3,41.0,30.29,WNW,287,6.0,12.0,88,0.00,,,0.01,Weather View 32 v70,2013-02-03 18:16:00,
2013-02-03 10:21:00,45.4,40.2,30.29,WNW,302,5.0,12.0,82,0.00,,,0.01,Weather View 32 v70,2013-02-03 18:21:00,
2013-02-03 10:26:00,46.1,40.3,30.29,West,279,7.0,12.0,80,0.00,,,0.01,Weather View 32 v70,2013-02-03 18:26:00,
2013-02-03 10:30:00,46.4,40.2,30.29,WNW,290,4.0,12.0,79,0.00,,,0.01,Weather View 32 v70,2013-02-03 18:30:00,
2013-02-03 10:31:00,46.5,40.0,30.29,NW,312,9.0,12.0,78,0.00,,,0.01,Weather View 32 v70,2013-02-03 18:31:00,
2013-02-03 10:36:00,46.5,40.0,30.29,NW,312,9.0,12.0,78,-0.01,,,0.01,Weather View 32 v70,2013-02-03 18:36:00,
2013-02-03 10:42:00,47.0,39.8,30.29,WNW,293,10.0,12.0,76,0.00,,,0.01,Weather View 32 v70,2013-02-03 18:42:00,
2013-02-03 10:47:00,47.3,39.4,30.29,WNW,295,5.0,15.0,74,0.00,,,0.01,Weather View 32 v70,2013-02-03 18:47:00,
2013-02-03 10:52:00,47.7,39.8,30.29,West,273,1.0,15.0,74,0.00,,,0.01,Weather View 32 v70,2013-02-03 18:52:00,
2013-02-03 10:57:00,47.7,39.5,30.29,NW,311,7.0,15.0,73,0.00,,,0.01,Weather View 32 v70,2013-02-03 18:57:00,
2013-02-03 11:02:00,47.6,39.4,30.29,West,261,3.0,15.0,73,0.00,,,0.01,Weather View 32 v70,2013-02-03 19:02:00,
2013-02-03 11:07:00,47.6,39.4,30.29,NW,317,5.0,15.0,73,0.00,,,0.01,Weather View 32 v70,2013-02-03 19:07:00,
2013-02-03 11:12:00,47.4,39.2,30.29,WNW,287,6.0,15.0,73,0.00,,,0.01,Weather View 32 v70,2013-02-03 19:12:00,
2013-02-03 11:17:00,47.7,39.5,30.28,NW,304,3.0,15.0,73,0.00,,,0.01,Weather View 32 v70,2013-02-03 19:17:00,
2013-02-03 11:22:00,48.0,39.4,30.28,WNW,300,3.0,15.0,72,0.00,,,0.01,Weather View 32 v70,2013-02-03 19:22:00,
2013-02-03 11:27:00,48.0,39.4,30.28,West,267,8.0,15.0,72,0.00,,,0.01,Weather View 32 v70,2013-02-03 19:27:00,
2013-02-03 11:32:00,48.0,39.4,30.28,West,267,7.0,15.0,72,0.00,,,0.01,Weather View 32 v70,2013-02-03 19:32:00,
2013-02-03 11:37:00,48.2,39.6,30.28,NW,313,3.0,15.0,72,0.00,,,0.01,Weather View 32 v70,2013-02-03 19:37:00,
2013-02-03 11:42:00,47.9,39.3,30.28,West,279,2.0,15.0,72,0.00,,,0.01,Weather View 32 v70,2013-02-03 19:42:00,
2013-02-03 11:47:00,48.2,39.2,30.28,West,271,11.0,15.0,71,0.00,,,0.01,Weather View 32 v70,2013-02-03 19:47:00,
2013-02-03 11:52:00,48.5,39.5,30.27,NW,311,3.0,15.0,71,0.00,,,0.01,Weather View 32 v70,2013-02-03 19:52:00,
2013-02-03 12:00:00,48.9,39.5,30.27,NW,304,1.0,15.0,70,0.00,,,0.01,Weather View 32 v70,2013-02-03 20:00:00,
2013-02-03 12:05:00,49.1,39.7,30.27,West,281,5.0,15.0,70,0.00,,,0.01,Weather View 32 v70,2013-02-03 20:05:00,
2013-02-03 12:10:00,49.2,39.4,30.27,West,259,4.0,15.0,69,0.00,,,0.01,Weather View 32 v70,2013-02-03 20:10:00,
2013-02-03 12:15:00,49.1,39.4,30.26,WNW,284,8.0,18.0,69,0.00,,,0.01,Weather View 32 v70,2013-02-03 20:15:00,
2013-02-03 12:20:00,48.9,39.5,30.25,West,272,2.0,18.0,70,0.00,,,0.01,Weather View 32 v70,2013-02-03 20:20:00,
2013-02-03 12:25:00,48.9,39.2,30.26,WNW,292,5.0,18.0,69,0.00,,,0.01,Weather View 32 v70,2013-02-03 20:25:00,
2013-02-03 12:30:00,48.8,39.1,30.25,WNW,284,8.0,18.0,69,0.00,,,0.01,Weather View 32 v70,2013-02-03 20:30:00,
2013-02-03 12:35:00,48.6,38.9,30.25,NW,322,12.0,18.0,69,0.00,,,0.01,Weather View 32 v70,2013-02-03 20:35:00,
2013-02-03 12:39:00,48.6,38.9,30.25,WNW,290,2.0,18.0,69,0.00,,,0.01,Weather View 32 v70,2013-02-03 20:39:00,
2013-02-03 12:44:00,48.6,38.9,30.25,WNW,283,7.0,18.0,69,0.00,,,0.01,Weather View 32 v70,2013-02-03 20:44:00,
2013-02-03 12:49:00,48.6,38.9,30.25,WNW,296,6.0,18.0,69,-0.01,,,0.01,Weather View 32 v70,2013-02-03 20:49:00,
2013-02-03 12:54:00,48.6,38.9,30.25,West,281,10.0,18.0,69,0.00,,,0.01,Weather View 32 v70,2013-02-03 20:54:00,
2013-02-03 12:59:00,48.6,38.9,30.25,WNW,296,8.0,18.0,69,0.00,,,0.01,Weather View 32 v70,2013-02-03 20:59:00,
2013-02-03 13:04:00,48.6,38.9,30.24,West,275,5.0,18.0,69,0.00,,,0.01,Weather View 32 v70,2013-02-03 21:04:00,
2013-02-03 13:09:00,48.6,38.9,30.24,WNW,291,7.0,18.0,69,0.00,,,0.01,Weather View 32 v70,2013-02-03 21:09:00,
2013-02-03 13:14:00,48.8,39.1,30.24,WNW,295,2.0,18.0,69,0.00,,,0.01,Weather View 32 v70,2013-02-03 21:14:00,
2013-02-03 13:19:00,48.8,39.1,30.24,NW,305,6.0,18.0,69,0.00,,,0.01,Weather View 32 v70,2013-02-03 21:19:00,
2013-02-03 13:24:00,48.6,38.9,30.24,West,272,3.0,18.0,69,0.00,,,0.01,Weather View 32 v70,2013-02-03 21:24:00,
2013-02-03 13:29:00,48.6,38.5,30.24,NW,304,11.0,18.0,68,0.00,,,0.01,Weather View 32 v70,2013-02-03 21:29:00,
2013-02-03 13:34:00,48.5,38.8,30.23,NW,313,6.0,18.0,69,0.00,,,0.01,Weather View 32 v70,2013-02-03 21:34:00,
2013-02-03 13:39:00,48.3,38.6,30.23,WNW,296,2.0,18.0,69,0.00,,,0.01,Weather View 32 v70,2013-02-03 21:39:00,
2013-02-03 13:44:00,48.2,38.5,30.22,NW,304,4.0,16.0,69,0.00,,,0.01,Weather View 32 v70,2013-02-03 21:44:00,
2013-02-03 13:49:00,48.2,38.5,30.22,NW,309,12.0,17.0,69,0.00,,,0.01,Weather View 32 v70,2013-02-03 21:49:00,
2013-02-03 13:54:00,48.0,38.7,30.23,West,268,15.0,17.0,70,0.00,,,0.01,Weather View 32 v70,2013-02-03 21:54:00,
2013-02-03 13:59:00,48.0,38.7,30.22,WNW,290,6.0,17.0,70,0.00,,,0.01,Weather View 32 v70,2013-02-03 21:59:00,
2013-02-03 14:04:00,48.0,38.7,30.22,West,261,6.0,17.0,70,0.00,,,0.01,Weather View 32 v70,2013-02-03 22:04:00,
2013-02-03 14:09:00,47.9,38.2,30.22,WNW,290,6.0,17.0,69,0.00,,,0.01,Weather View 32 v70,2013-02-03 22:09:00,
2013-02-03 14:14:00,47.9,38.6,30.22,WNW,300,2.0,17.0,70,0.00,,,0.01,Weather View 32 v70,2013-02-03 22:14:00,
2013-02-03 14:19:00,47.9,38.6,30.22,NW,308,7.0,17.0,70,0.00,,,0.01,Weather View 32 v70,2013-02-03 22:19:00,
2013-02-03 14:24:00,48.0,38.7,30.22,WNW,295,3.0,17.0,70,0.00,,,0.01,Weather View 32 v70,2013-02-03 22:24:00,
2013-02-03 14:29:00,48.0,38.7,30.22,NW,313,8.0,17.0,70,0.00,,,0.01,Weather View 32 v70,2013-02-03 22:29:00,
2013-02-03 14:34:00,47.9,38.6,30.22,WNW,286,9.0,19.0,70,0.00,,,0.01,Weather View 32 v70,2013-02-03 22:34:00,
2013-02-03 14:39:00,48.2,38.5,30.22,West,277,5.0,19.0,69,0.00,,,0.01,Weather View 32 v70,2013-02-03 22:39:00,
2013-02-03 14:44:00,48.3,38.6,30.22,NW,305,5.0,19.0,69,0.00,,,0.01,Weather View 32 v70,2013-02-03 22:44:00,
2013-02-03 14:49:00,48.3,38.6,30.23,WNW,303,2.0,19.0,69,0.00,,,0.01,Weather View 32 v70,2013-02-03 22:49:00,
2013-02-03 14:54:00,48.5,38.4,30.23,West,276,1.0,19.0,68,0.00,,,0.01,Weather View 32 v70,2013-02-03 22:54:00,
2013-02-03 14:59:00,48.6,38.5,30.22,WNW,284,4.0,19.0,68,0.00,,,0.01,Weather View 32 v70,2013-02-03 22:59:00,
2013-02-03 15:04:00,48.6,38.1,30.22,West,263,10.0,19.0,67,0.00,,,0.01,Weather View 32 v70,2013-02-03 23:04:00,
2013-02-03 15:09:00,48.6,38.1,30.23,WNW,302,4.0,19.0,67,0.00,,,0.01,Weather View 32 v70,2013-02-03 23:09:00,
2013-02-03 15:14:00,48.6,38.5,30.22,West,266,12.0,19.0,68,0.00,,,0.01,Weather View 32 v70,2013-02-03 23:14:00,
2013-02-03 15:19:00,48.3,38.2,30.23,WNW,282,6.0,19.0,68,0.00,,,0.01,Weather View 32 v70,2013-02-03 23:19:00,
2013-02-03 15:24:00,48.5,38.4,30.23,WNW,288,2.0,19.0,68,0.00,,,0.01,Weather View 32 v70,2013-02-03 23:24:00,
2013-02-03 15:29:00,48.3,38.2,30.23,West,275,11.0,19.0,68,0.00,,,0.01,Weather View 32 v70,2013-02-03 23:29:00,
2013-02-03 15:34:00,48.3,38.2,30.23,West,272,11.0,18.0,68,0.00,,,0.01,Weather View 32 v70,2013-02-03 23:34:00,
2013-02-03 15:39:00,48.2,38.1,30.22,West,269,3.0,16.0,68,-0.01,,,0.01,Weather View 32 v70,2013-02-03 23:39:00,
2013-02-03 15:44:00,48.2,38.5,30.22,WNW,282,2.0,16.0,69,0.00,,,0.01,Weather View 32 v70,2013-02-03 23:44:00,
2013-02-03 15:49:00,48.2,38.5,30.22,NW,310,2.0,16.0,69,0.00,,,0.01,Weather View 32 v70,2013-02-03 23:49:00,
2013-02-03 15:54:00,48.3,38.2,30.22,West,277,1.0,16.0,68,0.00,,,0.01,Weather View 32 v70,2013-02-03 23:54:00,
2013-02-03 15:59:00,48.3,38.6,30.22,West,279,3.0,16.0,69,0.00,,,0.01,Weather View 32 v70,2013-02-03 23:59:00,
2013-02-03 16:04:00,48.2,38.1,30.22,West,269,1.0,18.0,68,0.00,,,0.01,Weather View 32 v70,2013-02-04 00:04:00,
2013-02-03 16:10:00,48.0,38.3,30.23,West,280,6.0,18.0,69,0.00,,,0.01,Weather View 32 v70,2013-02-04 00:10:00,
2013-02-03 16:15:00,47.9,38.2,30.23,WNW,291,4.0,18.0,69,0.00,,,0.01,Weather View 32 v70,2013-02-04 00:15:00,
2013-02-03 16:20:00,47.6,38.3,30.22,West,273,2.0,18.0,70,-0.01,,,0.01,Weather View 32 v70,2013-02-04 00:20:00,
2013-02-03 16:24:00,47.6,38.3,30.23,WNW,297,3.0,18.0,70,0.00,,,0.01,Weather View 32 v70,2013-02-04 00:24:00,
2013-02-03 16:29:00,47.4,38.5,30.23,WNW,283,5.0,18.0,71,0.00,,,0.01,Weather View 32 v70,2013-02-04 00:29:00,
2013-02-03 16:34:00,47.3,38.4,30.23,WNW,290,4.0,18.0,71,0.00,,,0.01,Weather View 32 v70,2013-02-04 00:34:00,
2013-02-03 16:39:00,47.3,38.0,30.23,West,275,6.0,18.0,70,0.00,,,0.01,Weather View 32 v70,2013-02-04 00:39:00,
2013-02-03 16:44:00,47.1,38.2,30.23,West,267,3.0,18.0,71,0.00,,,0.01,Weather View 32 v70,2013-02-04 00:44:00,
2013-02-03 16:49:00,47.0,38.1,30.22,West,272,9.0,18.0,71,0.00,,,0.01,Weather View 32 v70,2013-02-04 00:49:00,
2013-02-03 16:54:00,47.0,38.1,30.22,WNW,303,0.0,18.0,71,0.00,,,0.01,Weather View 32 v70,2013-02-04 00:54:00,
2013-02-03 17:00:00,47.0,38.1,30.22,WNW,282,2.0,18.0,71,0.00,,,0.01,Weather View 32 v70,2013-02-04 01:00:00,
2013-02-03 17:05:00,46.8,37.9,30.23,West,264,8.0,16.0,71,0.00,,,0.01,Weather View 32 v70,2013-02-04 01:05:00,
2013-02-03 17:10:00,46.8,37.9,30.23,WNW,288,2.0,16.0,71,-0.01,,,0.01,Weather View 32 v70,2013-02-04 01:10:00,
2013-02-03 17:14:00,46.8,37.9,30.23,West,261,0.0,16.0,71,0.00,,,0.01,Weather View 32 v70,2013-02-04 01:14:00,
2013-02-03 17:19:00,46.8,37.9,30.23,West,262,5.0,16.0,71,0.00,,,0.01,Weather View 32 v70,2013-02-04 01:19:00,
2013-02-03 17:25:00,46.8,37.5,30.22,West,261,13.0,14.0,70,-0.01,,,0.01,Weather View 32 v70,2013-02-04 01:25:00,
2013-02-03 17:29:00,46.8,37.5,30.23,West,263,4.0,14.0,70,0.00,,,0.01,Weather View 32 v70,2013-02-04 01:29:00,
2013-02-03 17:34:00,47.0,37.7,30.23,WSW,238,3.0,14.0,70,0.00,,,0.01,Weather View 32 v70,2013-02-04 01:34:00,
2013-02-03 17:39:00,47.0,37.7,30.23,West,261,0.0,14.0,70,0.00,,,0.01,Weather View 32 v70,2013-02-04 01:39:00,
2013-02-03 17:44:00,46.8,37.5,30.23,West,275,0.0,14.0,70,0.00,,,0.01,Weather View 32 v70,2013-02-04 01:44:00,
2013-02-03 17:49:00,47.0,37.7,30.23,WSW,246,6.0,14.0,70,0.00,,,0.01,Weather View 32 v70,2013-02-04 01:49:00,
2013-02-03 17:54:00,46.8,37.5,30.23,WSW,246,7.0,14.0,70,0.00,,,0.01,Weather View 32 v70,2013-02-04 01:54:00,
2013-02-03 17:59:00,46.8,37.5,30.23,West,281,6.0,15.0,70,0.00,,,0.01,Weather View 32 v70,2013-02-04 01:59:00,
2013-02-03 18:04:00,46.8,37.9,30.23,West,263,5.0,15.0,71,0.00,,,0.01,Weather View 32 v70,2013-02-04 02:04:00,
2013-02-03 18:09:00,46.7,37.4,30.23,West,263,8.0,15.0,70,0.00,,,0.01,Weather View 32 v70,2013-02-04 02:09:00,
2013-02-03 18:14:00,46.5,37.6,30.22,WNW,285,0.0,15.0,71,0.00,,,0.01,Weather View 32 v70,2013-02-04 02:14:00,
2013-02-03 18:19:00,46.4,37.5,30.23,West,268,0.0,15.0,71,0.00,,,0.01,Weather View 32 v70,2013-02-04 02:19:00,
2013-02-03 18:24:00,46.4,37.5,30.23,West,268,3.0,15.0,71,0.00,,,0.01,Weather View 32 v70,2013-02-04 02:24:00,
2013-02-03 18:29:00,46.7,37.4,30.23,West,273,4.0,15.0,70,0.00,,,0.01,Weather View 32 v70,2013-02-04 02:29:00,
2013-02-03 18:34:00,46.7,37.4,30.23,West,273,0.0,15.0,70,0.00,,,0.01,Weather View 32 v70,2013-02-04 02:34:00,
2013-02-03 18:39:00,46.7,37.4,30.23,WSW,257,7.0,15.0,70,0.00,,,0.01,Weather View 32 v70,2013-02-04 02:39:00,
2013-02-03 18:44:00,46.7,37.8,30.23,West,260,6.0,15.0,71,0.00,,,0.01,Weather View 32 v70,2013-02-04 02:44:00,
2013-02-03 18:49:00,46.7,37.8,30.23,WNW,282,3.0,15.0,71,0.00,,,0.01,Weather View 32 v70,2013-02-04 02:49:00,
2013-02-03 18:54:00,46.5,37.6,30.23,WSW,257,4.0,15.0,71,0.00,,,0.01,Weather View 32 v70,2013-02-04 02:54:00,
2013-02-03 18:59:00,46.7,37.8,30.23,WNW,295,9.0,14.0,71,0.00,,,0.01,Weather View 32 v70,2013-02-04 02:59:00,
2013-02-03 19:04:00,46.7,37.8,30.23,WSW,252,3.0,13.0,71,0.00,,,0.01,Weather View 32 v70,2013-02-04 03:04:00,
2013-02-03 19:09:00,46.5,37.6,30.23,WNW,285,1.0,13.0,71,0.00,,,0.01,Weather View 32 v70,2013-02-04 03:09:00,
2013-02-03 19:14:00,46.5,37.6,30.23,WSW,254,2.0,13.0,71,0.00,,,0.01,Weather View 32 v70,2013-02-04 03:14:00,
2013-02-03 19:19:00,46.5,37.6,30.23,West,274,1.0,13.0,71,0.00,,,0.01,Weather View 32 v70,2013-02-04 03:19:00,
2013-02-03 19:24:00,46.5,37.6,30.23,West,276,3.0,13.0,71,0.00,,,0.01,Weather View 32 v70,2013-02-04 03:24:00,
2013-02-03 19:29:00,46.5,37.2,30.23,WNW,284,0.0,13.0,70,0.00,,,0.01,Weather View 32 v70,2013-02-04 03:29:00,
2013-02-03 19:34:00,46.7,37.8,30.23,WSW,256,3.0,13.0,71,0.00,,,0.01,Weather View 32 v70,2013-02-04 03:34:00,
2013-02-03 19:39:00,46.7,37.8,30.23,West,268,9.0,15.0,71,0.00,,,0.01,Weather View 32 v70,2013-02-04 03:39:00,
2013-02-03 19:44:00,46.7,37.8,30.23,West,261,3.0,16.0,71,0.00,,,0.01,Weather View 32 v70,2013-02-04 03:44:00,
2013-02-03 19:49:00,46.8,37.9,30.22,West,265,4.0,16.0,71,0.00,,,0.01,Weather View 32 v70,2013-02-04 03:49:00,
2013-02-03 19:54:00,46.8,37.5,30.22,West,280,0.0,16.0,70,0.00,,,0.01,Weather View 32 v70,2013-02-04 03:54:00,
2013-02-03 19:59:00,46.7,37.8,30.22,West,264,6.0,16.0,71,0.00,,,0.01,Weather View 32 v70,2013-02-04 03:59:00,
2013-02-03 20:04:00,46.7,37.4,30.22,WSW,257,0.0,16.0,70,0.00,,,0.01,Weather View 32 v70,2013-02-04 04:04:00,
2013-02-03 20:09:00,46.5,37.6,30.22,West,263,2.0,16.0,71,0.00,,,0.01,Weather View 32 v70,2013-02-04 04:09:00,
2013-02-03 20:14:00,46.5,37.6,30.22,West,259,5.0,16.0,71,0.00,,,0.01,Weather View 32 v70,2013-02-04 04:14:00,
2013-02-03 20:19:00,46.5,37.6,30.22,North,0,0.0,16.0,71,0.00,,,0.01,Weather View 32 v70,2013-02-04 04:19:00,
2013-02-03 20:24:00,46.7,37.8,30.22,North,0,5.0,16.0,71,0.00,,,0.01,Weather View 32 v70,2013-02-04 04:24:00,
2013-02-03 20:29:00,46.5,37.6,30.22,West,269,0.0,16.0,71,0.00,,,0.01,Weather View 32 v70,2013-02-04 04:29:00,
2013-02-03 20:34:00,46.5,37.6,30.22,West,269,0.0,16.0,71,0.00,,,0.01,Weather View 32 v70,2013-02-04 04:34:00,
2013-02-03 20:39:00,46.4,37.9,30.22,SSW,207,5.0,16.0,72,0.00,,,0.01,Weather View 32 v70,2013-02-04 04:39:00,
2013-02-03 20:44:00,46.4,37.9,30.22,WSW,240,6.0,15.0,72,0.00,,,0.01,Weather View 32 v70,2013-02-04 04:44:00,
2013-02-03 20:49:00,46.4,37.9,30.22,West,278,0.0,15.0,72,0.00,,,0.01,Weather View 32 v70,2013-02-04 04:49:00,
2013-02-03 20:54:00,46.4,37.9,30.22,West,267,1.0,15.0,72,0.00,,,0.01,Weather View 32 v70,2013-02-04 04:54:00,
2013-02-03 20:59:00,46.2,37.7,30.22,WSW,256,0.0,15.0,72,0.00,,,0.01,Weather View 32 v70,2013-02-04 04:59:00,
2013-02-03 21:00:00,46.2,37.7,30.22,WSW,257,2.0,15.0,72,0.00,,,0.01,Weather View 32 v70,2013-02-04 05:00:00,
2013-02-03 21:02:00,46.2,37.7,30.22,West,270,6.0,15.0,72,0.00,,,0.01,Weather View 32 v70,2013-02-04 05:02:00,
2013-02-03 21:03:00,46.2,38.0,30.22,WNW,284,2.0,15.0,73,0.00,,,0.01,Weather View 32 v70,2013-02-04 05:03:00,
2013-02-03 21:08:00,46.2,38.0,30.22,West,277,3.0,15.0,73,0.00,,,0.01,Weather View 32 v70,2013-02-04 05:08:00,
2013-02-03 21:13:00,46.0,37.8,30.22,WNW,286,0.0,15.0,73,0.00,,,0.01,Weather View 32 v70,2013-02-04 05:13:00,
2013-02-03 21:18:00,46.0,37.8,30.22,West,273,0.0,15.0,73,0.00,,,0.01,Weather View 32 v70,2013-02-04 05:18:00,
2013-02-03 21:23:00,45.8,37.6,30.22,West,271,3.0,15.0,73,0.00,,,0.01,Weather View 32 v70,2013-02-04 05:23:00,
2013-02-03 21:28:00,46.0,37.8,30.22,West,271,4.0,9.0,73,0.00,,,0.01,Weather View 32 v70,2013-02-04 05:28:00,
2013-02-03 21:33:00,45.8,37.6,30.22,WNW,285,0.0,9.0,73,0.00,,,0.01,Weather View 32 v70,2013-02-04 05:33:00,
2013-02-03 21:38:00,45.7,37.5,30.22,West,271,1.0,9.0,73,0.00,,,0.01,Weather View 32 v70,2013-02-04 05:38:00,
2013-02-03 21:43:00,45.7,37.5,30.21,West,279,0.0,9.0,73,0.00,,,0.01,Weather View 32 v70,2013-02-04 05:43:00,
2013-02-03 21:48:00,45.5,37.3,30.21,WSW,241,6.0,9.0,73,0.00,,,0.01,Weather View 32 v70,2013-02-04 05:48:00,
2013-02-03 21:53:00,45.7,37.9,30.22,West,279,6.0,10.0,74,0.00,,,0.01,Weather View 32 v70,2013-02-04 05:53:00,
2013-02-03 21:58:00,45.5,38.0,30.21,WNW,296,0.0,11.0,75,0.00,,,0.01,Weather View 32 v70,2013-02-04 05:58:00,
2013-02-03 22:03:00,45.4,37.9,30.21,WNW,290,0.0,11.0,75,0.00,,,0.01,Weather View 32 v70,2013-02-04 06:03:00,
2013-02-03 22:08:00,45.4,37.9,30.21,WNW,288,0.0,11.0,75,0.00,,,0.01,Weather View 32 v70,2013-02-04 06:08:00,
2013-02-03 22:13:00,45.2,38.1,30.21,WNW,288,4.0,11.0,76,0.00,,,0.01,Weather View 32 v70,2013-02-04 06:13:00,
2013-02-03 22:18:00,45.2,38.1,30.22,WNW,294,0.0,11.0,76,0.00,,,0.01,Weather View 32 v70,2013-02-04 06:18:00,
2013-02-03 22:23:00,45.2,38.1,30.21,NNW,342,3.0,12.0,76,0.00,,,0.01,Weather View 32 v70,2013-02-04 06:23:00,
2013-02-03 22:28:00,45.2,37.7,30.21,West,271,12.0,12.0,75,0.00,,,0.01,Weather View 32 v70,2013-02-04 06:28:00,
2013-02-03 22:33:00,45.5,38.0,30.21,WNW,283,4.0,15.0,75,0.00,,,0.01,Weather View 32 v70,2013-02-04 06:33:00,
2013-02-03 22:38:00,45.8,37.6,30.21,West,281,6.0,15.0,73,0.00,,,0.01,Weather View 32 v70,2013-02-04 06:38:00,
2013-02-03 22:43:00,46.0,37.8,30.21,NW,317,3.0,15.0,73,0.00,,,0.01,Weather View 32 v70,2013-02-04 06:43:00,
2013-02-03 22:48:00,46.0,37.5,30.21,WSW,258,8.0,15.0,72,0.00,,,0.01,Weather View 32 v70,2013-02-04 06:48:00,
2013-02-03 22:53:00,46.1,37.6,30.20,West,266,5.0,15.0,72,0.00,,,0.01,Weather View 32 v70,2013-02-04 06:53:00,
2013-02-03 22:58:00,46.1,37.6,30.20,WSW,254,3.0,15.0,72,0.00,,,0.01,Weather View 32 v70,2013-02-04 06:58:00,
2013-02-03 23:03:00,46.2,37.7,30.20,West,281,3.0,15.0,72,0.00,,,0.01,Weather View 32 v70,2013-02-04 07:03:00,
2013-02-03 23:08:00,46.2,37.7,30.20,West,268,0.0,15.0,72,0.00,,,0.01,Weather View 32 v70,2013-02-04 07:08:00,
2013-02-03 23:13:00,46.1,37.6,30.20,WSW,253,0.0,15.0,72,0.00,,,0.01,Weather View 32 v70,2013-02-04 07:13:00,
2013-02-03 23:18:00,46.1,37.6,30.20,WSW,254,12.0,15.0,72,0.00,,,0.01,Weather View 32 v70,2013-02-04 07:18:00,
2013-02-03 23:23:00,46.1,37.6,30.20,West,272,0.0,15.0,72,0.00,,,0.01,Weather View 32 v70,2013-02-04 07:23:00,
2013-02-03 23:28:00,46.1,37.6,30.20,West,263,6.0,15.0,72,0.00,,,0.01,Weather View 32 v70,2013-02-04 07:28:00,
2013-02-03 23:33:00,46.0,37.8,30.20,WNW,283,0.0,15.0,73,0.00,,,0.01,Weather View 32 v70,2013-02-04 07:33:00,
2013-02-03 23:38:00,45.8,37.6,30.20,WNW,284,0.0,15.0,73,0.00,,,0.01,Weather View 32 v70,2013-02-04 07:38:00,
2013-02-03 23:43:00,45.7,37.9,30.20,West,268,3.0,15.0,74,0.00,,,0.01,Weather View 32 v70,2013-02-04 07:43:00,
2013-02-03 23:48:00,45.5,37.7,30.20,West,271,0.0,15.0,74,0.00,,,0.01,Weather View 32 v70,2013-02-04 07:48:00,
2013-02-03 23:53:00,45.4,37.9,30.20,West,267,2.0,15.0,75,0.00,,,0.01,Weather View 32 v70,2013-02-04 07:53:00,
2013-02-03 23:58:00,45.4,37.9,30.20,WNW,283,4.0,13.0,75,-0.01,,,0.00,Weather View 32 v70,2013-02-04 07:58:00,